Time;durP1;ratioP1;P1;durP2;ratioP2;P2;SDS_P1;SDS_P2;PMS_P1;PMS_P2;Temp;Humidity;BMP_temperature;BMP_pressure;BME280_temperature;BME280_humidity;BME280_pressure;Samples;Min_cycle;Max_cycle;Signal;HPM_P1;HPM_P2
2021/12/16 00:09:40;;;;;;;79.07;38.25;;;10.40;99.90;;;8.92;100.00;102315.00;5005607;28;20534;-82
2021/12/16 00:29:22;;;;;;;78.53;37.40;;;10.40;99.90;;;8.85;100.00;102302.94;4990962;28;20314;-82
2021/12/16 00:31:56;;;;;;;81.70;40.05;;;10.40;99.90;;;8.90;100.00;102300.72;5008786;28;20490;-82
2021/12/16 00:34:28;;;;;;;87.55;41.83;;;10.30;99.90;;;8.91;100.00;102307.88;5009103;28;20058;-82
2021/12/16 00:36:56;;;;;;;88.57;41.28;;;10.30;99.90;;;8.85;100.00;102305.66;4990994;28;20088;-82
2021/12/16 00:39:32;;;;;;;82.97;41.17;;;10.30;99.90;;;8.89;100.00;102304.44;5007736;28;20045;-82
2021/12/16 00:42:06;;;;;;;90.30;40.85;;;10.40;99.90;;;8.93;100.00;102305.88;4990790;28;20049;-82
2021/12/16 00:45:01;;;;;;;84.38;40.40;;;10.40;99.90;;;8.88;100.00;102308.13;4990953;28;20418;-82
2021/12/16 00:47:33;;;;;;;88.53;41.55;;;10.40;99.90;;;8.90;100.00;102310.72;4990782;28;20073;-82
2021/12/16 00:50:18;;;;;;;79.03;40.10;;;10.30;99.90;;;8.91;100.00;102302.44;5008817;28;20415;-82
2021/12/16 00:55:43;;;;;;;81.15;41.13;;;10.40;99.90;;;8.94;100.00;102304.03;4991058;28;20077;-82
2021/12/16 00:58:11;;;;;;;85.10;41.65;;;10.40;99.90;;;8.87;100.00;102298.28;4990682;28;20057;-82
2021/12/16 01:00:41;;;;;;;89.78;42.10;;;10.40;99.90;;;8.79;100.00;102309.75;5008680;28;20561;-82
2021/12/16 01:03:20;;;;;;;84.25;41.05;;;10.40;99.90;;;8.82;100.00;102308.66;4990337;28;20136;-82
2021/12/16 01:34:20;;;;;;;99.63;42.92;;;10.40;99.90;;;8.94;100.00;102329.31;4909200;29;20052;-81
2021/12/16 01:37:20;;;;;;;100.57;45.60;;;10.30;99.90;;;8.95;100.00;102324.78;4908897;29;20048;-82
2021/12/16 01:40:09;;;;;;;98.45;45.50;;;10.30;99.90;;;8.94;100.00;102334.75;4981258;28;20465;-82
2021/12/16 01:45:40;;;;;;;106.78;47.30;;;10.40;99.90;;;8.98;100.00;102340.78;4957518;28;20071;-82
2021/12/16 01:50:57;;;;;;;109.10;47.88;;;10.40;99.90;;;9.04;100.00;102344.84;4994536;28;20077;-82
2021/12/16 01:53:51;;;;;;;105.82;46.72;;;10.40;99.90;;;9.01;100.00;102345.97;4994026;28;20046;-82
2021/12/16 01:56:33;;;;;;;95.80;44.95;;;10.40;99.90;;;8.99;100.00;102348.81;5010516;28;20057;-82
2021/12/16 01:59:04;;;;;;;113.13;48.58;;;10.40;99.90;;;9.03;100.00;102346.69;5010515;28;20155;-82
2021/12/16 02:01:36;;;;;;;99.25;45.92;;;10.40;99.90;;;9.02;100.00;102331.38;5010193;28;20073;-82
2021/12/16 02:04:14;;;;;;;109.05;48.53;;;10.40;99.90;;;9.08;100.00;102335.44;4993975;28;20696;-82
2021/12/16 02:07:00;;;;;;;101.50;44.83;;;10.50;99.90;;;9.12;100.00;102343.22;4993806;28;20465;-82
2021/12/16 02:09:34;;;;;;;102.28;46.65;;;10.40;99.90;;;9.12;100.00;102336.91;5011654;28;20046;-82
2021/12/16 02:12:11;;;;;;;106.95;48.00;;;10.40;99.90;;;9.13;100.00;102350.34;5010135;28;20469;-82
2021/12/16 02:29:00;;;;;;;108.22;48.45;;;10.50;99.90;;;8.93;100.00;102352.06;4993792;28;20119;-82
2021/12/16 02:31:46;;;;;;;103.45;46.53;;;10.50;99.90;;;8.92;100.00;102358.47;5009466;28;20100;-82
2021/12/16 02:34:29;;;;;;;103.63;47.67;;;10.50;99.90;;;9.02;100.00;102361.25;5009962;28;20042;-82
2021/12/16 02:37:01;;;;;;;107.78;47.53;;;10.50;99.90;;;9.04;100.00;102361.13;5009593;28;20491;-82
2021/12/16 02:39:34;;;;;;;118.32;51.30;;;10.50;99.90;;;8.97;100.00;102356.22;4993279;28;20052;-82
2021/12/16 02:42:12;;;;;;;116.07;50.15;;;10.50;99.90;;;8.97;100.00;102358.09;5009160;28;20112;-82
2021/12/16 02:48:27;;;;;;;100.03;46.80;;;10.50;99.90;;;9.07;100.00;102355.47;4993332;28;20053;-82
2021/12/16 02:50:19;;;;;;;106.22;47.97;;;10.50;99.90;;;9.08;100.00;102365.31;4949819;28;20427;-82
2021/12/16 02:52:49;;;;;;;108.97;48.85;;;10.60;99.90;;;9.12;100.00;102358.63;5008700;28;20529;-82
2021/12/16 02:55:20;;;;;;;106.50;47.40;;;10.60;99.90;;;9.14;100.00;102356.66;4993192;28;20497;-82
2021/12/16 02:57:54;;;;;;;103.43;47.58;;;10.50;99.90;;;9.07;100.00;102361.75;5010761;28;20081;-83
2021/12/16 03:00:22;;;;;;;112.82;48.65;;;10.60;99.90;;;9.05;100.00;102368.31;4993048;28;20082;-83
2021/12/16 03:02:53;;;;;;;101.60;47.17;;;10.60;99.90;;;9.02;100.00;102355.81;4992307;28;20114;-84
2021/12/16 03:05:21;;;;;;;;;;;10.60;99.90;;;9.06;100.00;102349.13;5009739;28;20056;-83
2021/12/16 03:07:52;;;;;;;107.25;47.80;;;10.50;99.90;;;9.05;100.00;102358.28;4992957;28;19925;-82
2021/12/16 03:13:27;;;;;;;106.90;48.13;;;10.60;99.90;;;9.08;100.00;102358.06;4933167;29;20078;-83
2021/12/16 03:16:06;;;;;;;115.40;50.10;;;10.60;99.90;;;9.08;100.00;102357.16;4933218;29;20047;-83
2021/12/16 03:18:43;;;;;;;103.05;48.15;;;10.60;99.90;;;9.07;100.00;102355.47;4966463;28;20050;-83
2021/12/16 03:21:18;;;;;;;105.53;49.10;;;10.60;99.90;;;9.10;100.00;102356.06;5010040;28;20616;-83
2021/12/16 03:24:16;;;;;;;110.78;49.92;;;10.50;99.90;;;9.11;100.00;102352.34;5008884;28;20200;-83
2021/12/16 03:29:57;;;;;;;104.00;49.33;;;10.60;99.90;;;9.00;100.00;102355.97;4992624;28;20065;-83
2021/12/16 03:33:15;;;;;;;110.78;49.13;;;10.60;99.90;;;9.05;100.00;102357.44;5010095;28;20053;-83
2021/12/16 03:36:03;;;;;;;111.67;50.00;;;10.60;99.90;;;8.99;100.00;102365.09;4992599;28;20510;-83
2021/12/16 03:38:31;;;;;;;104.28;49.75;;;10.60;99.90;;;8.96;100.00;102368.06;5008706;28;20400;-83
2021/12/16 03:41:01;;;;;;;111.35;49.03;;;10.60;99.90;;;8.94;100.00;102372.75;4991936;28;20081;-83
2021/12/16 03:43:31;;;;;;;112.05;48.13;;;10.60;99.90;;;9.00;100.00;102365.97;4992229;28;20050;-83
2021/12/16 03:48:52;;;;;;;99.75;46.25;;;10.60;99.90;;;8.93;100.00;102368.34;4991705;28;20085;-83
2021/12/16 03:51:30;;;;;;;109.05;46.00;;;10.50;99.90;;;8.97;100.00;102371.66;4991846;28;20053;-83
2021/12/16 03:54:07;;;;;;;102.85;48.03;;;10.50;99.90;;;9.04;100.00;102374.72;4979230;28;20050;-83
2021/12/16 03:56:39;;;;;;;109.28;47.72;;;10.50;99.90;;;9.07;100.00;102374.47;4972588;28;20046;-83
2021/12/16 03:59:17;;;;;;;93.93;43.22;;;10.50;99.90;;;9.07;100.00;102377.19;4972220;28;20550;-83
2021/12/16 04:02:04;;;;;;;99.18;45.70;;;10.50;99.90;;;9.05;100.00;102379.16;4972149;28;20055;-84
2021/12/16 04:04:38;;;;;;;110.53;46.85;;;10.50;99.90;;;9.02;100.00;102385.69;4971861;28;20093;-83
2021/12/16 04:07:07;;;;;;;112.35;45.90;;;10.50;99.90;;;8.97;100.00;102377.09;4972225;28;20050;-83
2021/12/16 04:09:50;;;;;;;105.47;47.72;;;10.50;99.90;;;8.98;100.00;102384.25;4972242;28;20050;-83
2021/12/16 04:12:27;;;;;;;106.47;45.80;;;10.50;99.90;;;8.91;100.00;102378.47;4988267;28;20053;-83
2021/12/16 04:14:58;;;;;;;;;;;10.50;99.90;;;8.91;100.00;102377.59;4972628;28;20132;-83
2021/12/16 04:17:31;;;;;;;103.05;45.50;;;10.50;99.90;;;8.88;100.00;102381.44;4972326;28;19949;-83
2021/12/16 04:20:07;;;;;;;96.18;43.42;;;10.50;99.90;;;8.90;100.00;102384.88;4972030;28;20065;-83
2021/12/16 04:22:42;;;;;;;100.57;44.58;;;10.40;99.90;;;8.94;100.00;102378.19;4989419;28;20042;-83
2021/12/16 04:25:15;;;;;;;98.50;44.85;;;10.50;99.90;;;8.92;100.00;102380.19;4989791;28;20384;-84
2021/12/16 04:27:45;;;;;;;95.55;45.33;;;10.40;99.90;;;8.97;100.00;102383.38;4983729;28;20050;-83
2021/12/16 04:30:17;;;;;;;111.05;47.58;;;10.40;99.90;;;9.00;100.00;102388.56;4991307;28;20104;-83
2021/12/16 04:32:46;;;;;;;106.93;48.22;;;10.50;99.90;;;9.03;100.00;102395.59;4990914;28;20049;-83
2021/12/16 04:35:17;;;;;;;112.78;48.08;;;10.40;99.90;;;9.05;100.00;102398.19;4987786;28;20054;-83
2021/12/16 04:37:50;;;;;;;108.63;46.70;;;10.40;99.90;;;9.08;100.00;102400.63;4987910;28;20053;-83
2021/12/16 04:40:19;;;;;;;101.35;46.65;;;10.40;99.90;;;9.00;100.00;102399.44;4995153;28;20137;-83
2021/12/16 04:42:58;;;;;;;108.30;47.60;;;10.40;99.90;;;9.02;100.00;102398.44;4990582;28;20053;-83
2021/12/16 04:45:27;;;;;;;107.07;46.08;;;10.50;99.90;;;9.04;100.00;102405.44;4990731;28;20104;-83
2021/12/16 04:47:55;;;;;;;110.20;48.03;;;10.50;99.90;;;9.08;100.00;102404.22;4990896;28;20046;-83
2021/12/16 04:50:23;;;;;;;104.45;46.80;;;10.50;99.90;;;9.12;100.00;102404.81;4991071;28;20053;-83
2021/12/16 04:52:50;;;;;;;112.53;48.85;;;10.40;99.90;;;9.10;100.00;102407.66;4990371;28;20636;-83
2021/12/16 04:55:20;;;;;;;112.40;48.28;;;10.50;99.90;;;9.11;100.00;102403.94;4990894;28;20080;-83
2021/12/16 04:57:49;;;;;;;114.85;47.80;;;10.50;99.90;;;9.08;100.00;102395.19;4990956;28;20049;-83
2021/12/16 05:00:23;;;;;;;121.50;50.85;;;10.40;99.90;;;9.08;100.00;102395.19;4990856;28;20553;-83
2021/12/16 05:03:02;;;;;;;121.93;48.47;;;10.40;99.90;;;9.07;100.00;102385.34;4990283;28;20068;-83
2021/12/16 05:05:37;;;;;;;111.75;49.47;;;10.40;99.90;;;9.05;100.00;102392.75;4990573;28;20085;-83
2021/12/16 05:08:05;;;;;;;110.70;50.25;;;10.40;99.90;;;9.06;100.00;102387.16;5006999;28;20046;-83
2021/12/16 05:10:45;;;;;;;115.88;50.50;;;10.40;99.90;;;9.04;100.00;102388.28;5008518;28;20056;-85
2021/12/16 05:13:21;;;;;;;117.47;49.70;;;10.40;99.90;;;8.92;100.00;102384.75;4990546;28;20049;-86
2021/12/16 05:15:50;;;;;;;114.65;49.35;;;10.40;99.90;;;8.86;100.00;102386.13;4990510;28;20570;-87
2021/12/16 05:18:23;;;;;;;109.57;48.25;;;10.40;99.90;;;8.87;100.00;102387.88;4990546;28;20666;-84
2021/12/16 05:20:55;;;;;;;105.57;46.25;;;10.30;99.90;;;8.83;100.00;102386.38;4990516;28;20054;-85
2021/12/16 05:26:18;;;;;;;101.55;44.88;;;10.30;99.90;;;8.77;100.00;102397.75;4990581;28;20073;-84
2021/12/16 05:29:00;;;;;;;107.72;47.13;;;10.20;99.90;;;8.77;100.00;102403.16;5007027;28;20060;-84
2021/12/16 05:31:30;;;;;;;110.00;46.30;;;10.20;99.90;;;8.81;100.00;102396.50;5006699;28;20145;-84
2021/12/16 05:34:00;;;;;;;107.85;47.42;;;10.20;99.90;;;8.78;100.00;102399.47;4990813;28;20072;-85
2021/12/16 05:36:29;;;;;;;103.68;46.05;;;10.20;99.90;;;8.76;100.00;102401.47;5007035;28;20553;-85
2021/12/16 05:38:57;;;;;;;106.38;46.35;;;10.20;99.90;;;8.75;100.00;102416.88;4990481;28;20046;-83
2021/12/16 05:41:27;;;;;;;111.30;46.72;;;10.20;99.90;;;8.73;100.00;102418.84;5006487;28;20116;-85
2021/12/16 05:43:58;;;;;;;101.78;45.97;;;10.20;99.90;;;8.75;100.00;102426.88;4989487;28;20046;-84
2021/12/16 05:46:27;;;;;;;95.90;44.05;;;10.10;99.90;;;8.74;100.00;102425.16;5008193;28;20506;-86
2021/12/16 05:49:00;;;;;;;96.28;44.38;;;10.10;99.90;;;8.76;100.00;102423.19;4990298;28;20161;-84
2021/12/16 05:51:44;;;;;;;102.35;45.40;;;10.10;99.90;;;8.71;100.00;102422.69;5006307;28;20038;-84
2021/12/16 05:54:13;;;;;;;94.53;45.80;;;10.10;99.90;;;8.71;100.00;102428.13;4990298;28;20054;-83
2021/12/16 05:56:46;;;;;;;109.93;47.35;;;10.10;99.90;;;8.74;100.00;102427.88;4990349;28;20155;-86
2021/12/16 05:59:17;;;;;;;117.93;47.35;;;10.10;99.90;;;8.74;100.00;102430.59;5006614;28;20058;-86
2021/12/16 06:01:50;;;;;;;104.80;45.50;;;10.10;99.90;;;8.73;100.00;102437.84;4990004;28;20056;-87
2021/12/16 06:04:23;;;;;;;98.82;44.30;;;10.10;99.90;;;8.71;100.00;102436.25;4990157;28;20112;-86
2021/12/16 06:06:55;;;;;;;109.60;46.03;;;10.20;99.90;;;8.72;100.00;102447.00;4990396;28;20576;-85
2021/12/16 06:09:23;;;;;;;109.60;47.33;;;10.10;99.90;;;8.73;100.00;102451.41;4990307;28;20050;-86
2021/12/16 06:11:53;;;;;;;103.70;46.05;;;10.10;99.90;;;8.75;100.00;102448.59;5007659;28;20038;-86
2021/12/16 06:14:26;;;;;;;109.18;49.38;;;10.10;99.90;;;8.76;100.00;102453.03;5008126;28;20074;-85
2021/12/16 06:28:03;;;;;;;104.35;44.75;;;10.10;99.90;;;8.66;100.00;102452.91;5008653;28;20041;-84
2021/12/16 06:30:34;;;;;;;107.93;47.40;;;10.10;99.90;;;8.65;100.00;102459.34;5009314;28;20058;-86
2021/12/16 06:33:02;;;;;;;106.83;46.67;;;10.10;99.90;;;8.65;100.00;102453.91;5008349;28;20077;-86
2021/12/16 06:35:31;;;;;;;102.53;46.03;;;10.10;99.90;;;8.62;100.00;102459.56;5011090;28;20288;-85
2021/12/16 06:37:59;;;;;;;129.77;50.50;;;10.10;99.90;;;8.66;100.00;102466.47;4991444;28;20141;-85
2021/12/16 06:40:33;;;;;;;108.20;47.70;;;10.10;99.90;;;8.66;100.00;102462.91;4991845;28;20046;-85
2021/12/16 06:43:19;;;;;;;101.53;46.72;;;10.10;99.90;;;8.69;100.00;102470.81;4992690;28;20050;-85
2021/12/16 06:45:50;;;;;;;108.43;46.75;;;10.10;99.90;;;8.71;100.00;102471.53;4993249;28;20053;-85
2021/12/16 06:48:21;;;;;;;111.18;48.15;;;10.10;99.90;;;8.72;100.00;102470.53;5010434;28;20049;-85
2021/12/16 06:50:54;;;;;;;106.03;47.42;;;10.10;99.90;;;8.70;100.00;102472.53;5009241;28;20046;-85
2021/12/16 06:53:30;;;;;;;101.32;45.47;;;10.20;99.90;;;8.72;100.00;102465.13;5010651;28;20074;-85
2021/12/16 06:56:05;;;;;;;110.25;46.42;;;10.20;99.90;;;8.71;100.00;102476.97;5010360;28;20042;-85
2021/12/16 06:58:37;;;;;;;98.63;44.42;;;10.20;99.90;;;8.75;100.00;102483.88;5006510;28;20080;-84
2021/12/16 07:01:16;;;;;;;101.80;46.88;;;10.20;99.90;;;8.74;100.00;102474.03;5010415;28;20038;-85
2021/12/16 07:03:47;;;;;;;113.78;47.30;;;10.20;99.90;;;8.72;100.00;102475.97;5010462;28;20176;-85
2021/12/16 07:06:19;;;;;;;;;;;10.20;99.90;;;8.70;100.00;102484.25;4992976;28;20050;-85
2021/12/16 07:08:49;;;;;;;114.55;47.03;;;10.20;99.90;;;8.70;100.00;102488.81;4974709;28;19925;-85
2021/12/16 07:11:17;;;;;;;111.03;49.55;;;10.20;99.90;;;8.72;100.00;102492.25;5000144;28;20046;-85
2021/12/16 07:13:55;;;;;;;123.43;51.53;;;10.20;99.90;;;8.74;100.00;102495.75;4992815;28;20538;-85
2021/12/16 07:16:23;;;;;;;118.82;49.53;;;10.20;99.90;;;8.75;100.00;102498.31;5010138;28;20104;-85
2021/12/16 07:19:09;;;;;;;120.47;51.15;;;10.20;99.90;;;8.79;100.00;102498.94;5009577;28;20046;-85
2021/12/16 07:21:38;;;;;;;126.25;52.63;;;10.20;99.90;;;8.81;100.00;102505.09;5008925;28;20457;-85
2021/12/16 07:24:17;;;;;;;130.25;53.67;;;10.20;99.90;;;8.85;100.00;102509.28;5010171;28;20033;-85
2021/12/16 07:26:45;;;;;;;123.05;52.85;;;10.20;99.90;;;8.86;100.00;102512.88;5009397;28;20138;-85
2021/12/16 07:29:23;;;;;;;124.70;51.45;;;10.20;99.90;;;8.81;100.00;102515.94;5010022;28;20041;-85
2021/12/16 07:31:50;;;;;;;123.30;52.30;;;10.20;99.90;;;8.84;100.00;102523.88;5009841;28;20049;-85
2021/12/16 07:57:29;;;;;;;145.45;55.88;;;10.30;99.90;;;8.84;100.00;102539.28;5073821;27;20408;-84
2021/12/16 08:03:36;;;;;;;175.50;60.58;;;10.30;99.90;;;8.80;100.00;102542.25;5032147;28;20094;-84
2021/12/16 08:09:10;;;;;;;146.65;57.00;;;10.30;99.90;;;8.79;100.00;102542.38;5057859;28;20408;-84
2021/12/16 08:11:42;;;;;;;149.07;56.17;;;10.40;99.90;;;8.86;100.00;102530.03;5064780;28;20044;-85
2021/12/16 08:14:10;;;;;;;;;;;10.30;99.90;;;8.88;100.00;102535.34;5065583;28;20052;-84
2021/12/16 08:16:38;;;;;;;141.98;57.17;;;10.30;99.90;;;8.86;100.00;102548.19;5065002;28;19925;-85
2021/12/16 08:19:07;;;;;;;160.77;58.80;;;10.30;99.90;;;8.79;100.00;102545.06;5065141;28;20107;-84
2021/12/16 08:21:35;;;;;;;163.70;59.58;;;10.40;99.90;;;8.70;100.00;102554.84;5064764;28;20107;-85
2021/12/16 08:24:06;;;;;;;152.93;58.17;;;10.40;99.90;;;8.77;100.00;102566.06;5058163;28;20044;-84
2021/12/16 08:26:36;;;;;;;154.60;57.72;;;10.40;99.90;;;8.82;100.00;102572.00;5065069;28;20056;-84
2021/12/16 08:29:05;;;;;;;151.75;58.33;;;10.40;99.90;;;8.89;100.00;102594.97;5064868;28;20068;-85
2021/12/16 08:31:33;;;;;;;137.07;55.72;;;10.40;99.90;;;8.92;100.00;102596.56;5064722;28;20120;-84
2021/12/16 08:34:01;;;;;;;146.55;56.30;;;10.40;99.90;;;8.92;100.00;102608.28;5064707;28;20072;-85
2021/12/16 08:36:29;;;;;;;156.52;57.10;;;10.40;99.90;;;8.82;100.00;102617.28;5064737;28;20040;-85
2021/12/16 08:38:57;;;;;;;143.70;53.42;;;10.40;99.90;;;8.78;100.00;102616.66;5066015;28;20105;-84
2021/12/16 08:41:30;;;;;;;127.28;50.08;;;10.40;99.90;;;8.79;100.00;102613.81;5055579;28;20128;-86
2021/12/16 08:43:58;;;;;;;146.82;55.05;;;10.40;99.90;;;8.80;100.00;102620.13;5047606;28;20507;-85
2021/12/16 08:46:31;;;;;;;136.13;52.75;;;10.50;99.90;;;8.87;100.00;102626.81;5055753;23;20109;-82
2021/12/16 08:49:00;;;;;;;131.50;51.45;;;10.50;99.90;;;8.80;100.00;102625.56;4985334;28;20046;-80
2021/12/16 08:51:33;;;;;;;143.55;50.88;;;10.50;99.90;;;8.78;100.00;102622.97;5000576;28;20148;-81
2021/12/16 08:54:00;;;;;;;138.35;51.30;;;10.50;99.90;;;8.81;100.00;102632.69;5004819;28;20124;-81
2021/12/16 08:56:28;;;;;;;137.85;53.13;;;10.50;99.90;;;8.81;100.00;102627.25;4998400;28;20134;-81
2021/12/16 08:58:57;;;;;;;129.90;49.10;;;10.50;99.90;;;8.86;100.00;102635.06;5001647;28;20073;-81
2021/12/16 09:01:32;;;;;;;136.02;47.90;;;10.50;99.90;;;8.82;100.00;102633.59;5000322;28;20069;-81
2021/12/16 09:04:00;;;;;;;126.65;49.20;;;10.50;99.90;;;8.84;100.00;102631.63;5003565;28;20070;-80
2021/12/16 09:06:27;;;;;;;134.57;48.83;;;10.50;99.90;;;8.87;100.00;102632.25;5001421;28;20454;-80
2021/12/16 09:08:55;;;;;;;135.15;50.35;;;10.50;99.90;;;8.86;100.00;102627.78;4991519;28;20050;-80
2021/12/16 09:11:26;;;;;;;143.45;50.55;;;10.40;99.90;;;8.83;100.00;102630.72;4990156;28;20090;-80
2021/12/16 09:13:58;;;;;;;135.57;51.00;;;10.50;99.90;;;8.87;100.00;102636.78;4991595;28;20057;-80
2021/12/16 09:16:32;;;;;;;129.73;48.83;;;10.50;99.90;;;8.90;100.00;102637.41;4989224;28;20431;-80
2021/12/16 09:19:01;;;;;;;124.68;47.47;;;10.50;99.90;;;8.95;100.00;102637.91;4984218;28;20043;-80
2021/12/16 09:21:33;;;;;;;128.90;48.13;;;10.50;99.90;;;8.97;100.00;102640.53;4981476;28;20130;-80
2021/12/16 09:24:01;;;;;;;136.20;48.88;;;10.50;99.90;;;8.97;100.00;102638.66;4974700;28;20038;-80
2021/12/16 09:26:29;;;;;;;119.80;46.65;;;10.50;99.90;;;8.94;100.00;102644.31;4976744;28;20481;-80
2021/12/16 09:28:58;;;;;;;126.78;48.50;;;10.50;99.90;;;8.96;100.00;102644.19;4988642;28;20057;-80
2021/12/16 09:31:30;;;;;;;129.40;48.08;;;10.50;99.90;;;9.02;100.00;102646.44;4990652;28;20050;-80
2021/12/16 09:34:05;;;;;;;120.18;47.55;;;10.50;99.90;;;8.99;100.00;102641.25;4991073;28;20097;-80
2021/12/16 09:36:36;;;;;;;140.00;48.25;;;10.50;99.90;;;9.07;100.00;102649.66;4988229;28;20049;-80
2021/12/16 09:39:06;;;;;;;;;;;10.60;99.90;;;9.12;100.00;102652.00;4989207;28;20046;-80
2021/12/16 09:41:33;;;;;;;152.93;50.28;;;10.50;99.90;;;9.14;100.00;102652.75;4990863;28;19932;-80
2021/12/16 09:44:02;;;;;;;143.38;51.53;;;10.60;99.90;;;9.14;100.00;102641.91;4990939;28;20046;-80
2021/12/16 09:46:32;;;;;;;143.15;52.13;;;10.60;99.90;;;9.09;100.00;102647.69;4988162;28;20043;-80
2021/12/16 09:48:59;;;;;;;141.60;53.50;;;10.60;99.90;;;9.11;100.00;102647.56;4988067;28;20577;-81
2021/12/16 09:51:31;;;;;;;169.30;54.53;;;10.60;99.90;;;9.11;100.00;102644.84;4990743;28;20122;-80
2021/12/16 09:54:03;;;;;;;185.35;54.22;;;10.70;99.90;;;9.12;100.00;102635.69;4991059;28;20661;-80
2021/12/16 09:56:31;;;;;;;151.82;53.00;;;10.60;99.90;;;9.00;100.00;102643.84;4988021;28;20113;-80
2021/12/16 09:59:01;;;;;;;145.77;51.10;;;10.60;99.90;;;9.03;100.00;102650.03;4984390;28;20113;-80
2021/12/16 10:01:32;;;;;;;173.07;52.53;;;10.60;99.90;;;9.04;100.00;102643.59;4986062;28;20050;-81
2021/12/16 10:04:03;;;;;;;140.00;49.67;;;10.70;99.90;;;9.02;100.00;102643.72;4990502;28;20533;-80
2021/12/16 10:06:31;;;;;;;;;;;10.70;99.90;;;9.02;100.00;102648.28;4977023;28;20046;-81
2021/12/16 10:09:01;;;;;;;136.88;47.80;;;10.70;99.90;;;8.95;100.00;102651.50;4987373;28;20021;-80
2021/12/16 10:11:28;;;;;;;118.28;46.33;;;10.70;99.90;;;8.97;100.00;102649.53;4986337;28;20060;-81
2021/12/16 10:14:15;;;;;;;122.25;44.22;;;10.70;99.90;;;8.94;100.00;102644.31;4990364;28;20189;-81
2021/12/16 10:19:35;;;;;;;114.30;45.22;;;10.70;99.90;;;8.88;100.00;102644.81;4989036;28;20133;-81
2021/12/16 10:22:25;;;;;;;118.50;46.90;;;10.60;99.90;;;8.89;100.00;102646.56;4989468;28;20069;-81
2021/12/16 10:24:57;;;;;;;117.20;46.80;;;10.60;99.90;;;8.99;100.00;102658.41;4980058;28;20043;-80
2021/12/16 10:27:28;;;;;;;123.70;47.72;;;10.60;99.90;;;8.97;100.00;102654.94;4976866;28;20122;-80
2021/12/16 10:30:04;;;;;;;124.75;47.95;;;10.70;99.90;;;8.92;100.00;102646.28;4990109;28;20046;-80
2021/12/16 10:32:41;;;;;;;111.30;44.10;;;10.60;99.90;;;8.95;100.00;102659.66;4989612;28;20050;-80
2021/12/16 10:35:16;;;;;;;126.78;47.92;;;10.70;99.90;;;8.96;100.00;102661.34;4990086;28;20140;-80
2021/12/16 10:37:50;;;;;;;125.60;46.50;;;10.60;99.90;;;8.97;100.00;102654.94;4982866;28;20125;-80
2021/12/16 10:40:36;;;;;;;121.28;45.63;;;10.70;99.90;;;8.96;100.00;102647.78;4989432;28;20070;-80
2021/12/16 10:43:09;;;;;;;113.00;44.20;;;10.70;99.90;;;9.00;100.00;102657.44;4989025;28;20125;-80
2021/12/16 10:45:41;;;;;;;114.25;44.47;;;10.70;99.90;;;9.04;100.00;102649.03;4976696;28;20456;-80
2021/12/16 10:48:22;;;;;;;120.25;44.97;;;10.70;99.90;;;9.02;100.00;102657.28;4981635;28;20050;-80
2021/12/16 10:51:09;;;;;;;123.82;45.72;;;10.70;99.90;;;9.01;100.00;102658.28;4989368;28;20117;-80
2021/12/16 10:54:11;;;;;;;122.53;46.47;;;10.70;99.90;;;9.07;100.00;102670.53;4989609;28;20077;-82
2021/12/16 10:56:59;;;;;;;118.93;44.65;;;10.70;99.90;;;9.03;100.00;102666.31;4986502;28;20042;-81
2021/12/16 10:59:32;;;;;;;134.70;44.92;;;10.70;99.90;;;9.10;100.00;102660.28;4995716;28;20081;-80
2021/12/16 11:02:07;;;;;;;117.43;44.78;;;10.70;99.90;;;9.00;100.00;102665.59;5008161;28;20099;-81
2021/12/16 11:04:42;;;;;;;114.72;46.20;;;10.70;99.90;;;8.96;100.00;102669.50;5008996;28;20041;-81
2021/12/16 11:07:15;;;;;;;115.35;44.25;;;10.70;99.90;;;9.05;100.00;102661.63;4994732;28;20129;-81
2021/12/16 11:10:05;;;;;;;112.65;44.97;;;10.70;99.90;;;9.11;100.00;102666.56;4989559;28;20046;-81
2021/12/16 11:12:47;;;;;;;119.25;46.42;;;10.70;99.90;;;9.14;100.00;102666.34;4987890;28;20054;-81
2021/12/16 11:15:29;;;;;;;117.57;44.97;;;10.70;99.90;;;9.07;100.00;102665.09;4986302;28;20150;-81
2021/12/16 11:18:02;;;;;;;114.10;45.05;;;10.80;99.90;;;9.14;100.00;102671.78;4980834;28;20053;-81
2021/12/16 11:20:38;;;;;;;103.82;42.95;;;10.80;99.90;;;9.17;100.00;102671.50;4989081;28;20042;-81
2021/12/16 11:23:10;;;;;;;122.78;44.50;;;10.80;99.90;;;9.19;100.00;102666.81;4988334;28;20050;-81
2021/12/16 11:25:40;;;;;;;117.00;45.63;;;10.80;99.90;;;9.27;100.00;102666.19;4972991;28;20105;-81
2021/12/16 11:28:17;;;;;;;110.30;43.90;;;10.80;99.90;;;9.21;100.00;102675.69;4985567;28;20077;-81
2021/12/16 11:30:50;;;;;;;106.53;43.10;;;10.80;99.90;;;9.18;100.00;102674.13;4988671;28;20054;-81
2021/12/16 11:33:29;;;;;;;113.25;44.85;;;10.70;99.90;;;9.17;100.00;102674.22;4987235;28;20054;-81
2021/12/16 11:36:10;;;;;;;99.38;42.17;;;10.80;99.90;;;9.24;100.00;102670.03;4988609;28;20410;-80
2021/12/16 11:38:42;;;;;;;103.53;42.33;;;10.80;99.90;;;9.28;100.00;102663.38;4985465;28;20077;-80
2021/12/16 11:41:29;;;;;;;100.82;42.90;;;10.80;99.90;;;9.21;100.00;102662.13;4988228;28;20514;-80
2021/12/16 11:44:07;;;;;;;99.88;41.50;;;10.80;99.90;;;9.24;100.00;102661.03;4988981;28;20178;-80
2021/12/16 11:46:41;;;;;;;96.20;40.85;;;10.80;99.90;;;9.25;100.00;102652.72;4980658;28;20118;-80
2021/12/16 11:49:13;;;;;;;99.28;42.65;;;10.80;99.90;;;9.22;100.00;102658.44;4986940;28;20060;-80
2021/12/16 11:51:45;;;;;;;93.03;40.67;;;10.80;99.90;;;9.15;100.00;102649.03;4983602;28;20431;-80
2021/12/16 11:54:22;;;;;;;91.78;40.72;;;10.90;99.90;;;9.21;100.00;102653.97;4987769;28;20413;-80
2021/12/16 11:56:55;;;;;;;102.28;43.97;;;10.90;99.90;;;9.22;100.00;102646.72;4985032;28;20139;-81
2021/12/16 11:59:28;;;;;;;93.65;42.70;;;10.90;99.90;;;9.30;100.00;102655.94;4977093;28;20460;-81
2021/12/16 12:01:57;;;;;;;100.30;43.20;;;10.90;99.90;;;9.30;100.00;102644.22;4969753;28;20050;-81
2021/12/16 12:04:33;;;;;;;96.75;43.03;;;10.90;99.90;;;9.38;100.00;102648.03;4985091;28;20062;-80
2021/12/16 12:07:11;;;;;;;91.97;40.08;;;10.90;99.90;;;9.36;100.00;102650.00;4983015;28;20050;-80
2021/12/16 12:09:44;;;;;;;95.72;41.22;;;10.90;99.90;;;9.39;100.00;102655.22;4983161;28;20477;-80
2021/12/16 12:12:12;;;;;;;99.00;41.15;;;10.90;99.90;;;9.30;100.00;102661.38;4987746;28;20053;-81
2021/12/16 12:14:42;;;;;;;99.97;41.05;;;10.90;99.90;;;9.38;100.00;102658.91;4972690;28;20047;-81
2021/12/16 12:17:16;;;;;;;94.50;40.20;;;10.90;99.90;;;9.33;100.00;102660.31;4984095;28;20069;-81
2021/12/16 12:19:47;;;;;;;94.97;40.00;;;10.90;99.90;;;9.38;100.00;102658.06;4988692;28;20066;-81
2021/12/16 12:22:16;;;;;;;99.18;40.92;;;10.90;99.90;;;9.38;100.00;102658.91;4971870;28;20054;-81
2021/12/16 12:24:50;;;;;;;94.63;39.63;;;10.90;99.90;;;9.36;100.00;102669.03;4977722;28;20129;-81
2021/12/16 12:27:21;;;;;;;91.63;38.97;;;10.90;99.90;;;9.38;100.00;102671.63;4982609;28;20457;-81
2021/12/16 12:29:51;;;;;;;96.72;42.15;;;10.90;99.90;;;9.30;100.00;102672.25;4986840;28;20128;-81
2021/12/16 12:32:23;;;;;;;100.60;40.97;;;10.90;99.90;;;9.39;100.00;102671.53;4986173;28;20577;-81
2021/12/16 12:34:54;;;;;;;92.93;40.70;;;10.90;99.90;;;9.35;100.00;102672.75;4983766;28;20074;-81
2021/12/16 12:37:26;;;;;;;89.97;39.40;;;10.90;99.90;;;9.39;100.00;102671.53;4981873;28;20038;-81